createdAt,value
2019-01-03T00:02:32.358Z,174.10
2019-01-03T00:09:04.907Z,166.92
2019-01-03T00:15:39.007Z,168.00
2019-01-03T00:19:04.239Z,164.55
2019-01-03T00:25:38.851Z,159.90
2019-01-03T00:32:29.131Z,162.45
2019-01-03T00:39:01.988Z,164.35
2019-01-03T00:45:37.379Z,166.97
2019-01-03T00:52:09.325Z,165.92
2019-01-03T00:58:44.146Z,161.35
2019-01-03T01:05:32.998Z,167.13
2019-01-03T01:12:21.301Z,164.55
2019-01-03T01:18:53.837Z,161.80
2019-01-03T01:22:18.287Z,171.75
2019-01-03T01:28:51.134Z,166.28
2019-01-03T01:35:24.084Z,159.43
2019-01-03T01:42:13.064Z,160.93
2019-01-03T01:45:20.231Z,166.90
2019-01-03T01:48:06.924Z,162.77
2019-01-03T01:50:38.396Z,172.25
2019-01-03T01:57:13.225Z,155.57
2019-01-03T02:03:47.526Z,183.20
2019-01-03T02:10:22.226Z,161.40
2019-01-03T02:16:56.763Z,162.18
2019-01-03T02:23:43.553Z,235.72
2019-01-03T02:27:08.161Z,202.82
2019-01-03T02:38:06.775Z,154.90
2019-01-03T02:44:48.053Z,161.88
2019-01-03T02:51:28.842Z,166.35
2019-01-03T02:58:06.667Z,158.42
2019-01-03T03:01:16.046Z,158.52
2019-01-03T03:07:47.612Z,163.40
2019-01-03T03:14:22.121Z,171.45
2019-01-03T03:16:53.688Z,167.35
2019-01-03T03:23:34.684Z,167.68
2019-01-03T03:30:18.563Z,186.03
2019-01-03T03:36:59.896Z,191.73
2019-01-03T03:40:24.157Z,230.47
2019-01-03T03:46:56.168Z,221.37
2019-01-03T03:53:43.036Z,209.20
2019-01-03T04:00:31.504Z,185.85
2019-01-03T04:03:56.105Z,204.90
2019-01-03T04:10:38.822Z,215.13
2019-01-03T04:17:20.195Z,238.15
2019-01-03T04:20:44.393Z,229.03
2019-01-03T04:27:25.822Z,235.15
2019-01-03T04:33:58.574Z,209.27
2019-01-03T04:36:48.247Z,233.47
2019-01-03T04:43:36.729Z,214.55
2019-01-03T04:50:25.250Z,210.28
2019-01-03T04:57:00.685Z,204.05
2019-01-03T04:59:38.139Z,182.25
2019-01-03T05:06:16.738Z,224.88
2019-01-03T05:13:05.472Z,212.93
2019-01-03T05:19:46.135Z,190.75
2019-01-03T05:23:10.535Z,171.80
2019-01-03T05:29:59.765Z,158.07
2019-01-03T05:36:41.374Z,166.57
2019-01-03T05:39:13.080Z,157.80
2019-01-03T05:45:48.212Z,209.03
2019-01-03T05:52:29.252Z,202.87
2019-01-03T05:59:07.945Z,208.17
2019-01-03T06:05:40.512Z,187.35
2019-01-03T06:12:22.005Z,183.43
2019-01-03T06:15:46.822Z,204.93
2019-01-03T06:22:37.263Z,189.15
2019-01-03T06:25:11.610Z,188.90
2019-01-03T06:28:35.440Z,159.87
2019-01-03T06:35:10.084Z,197.02
2019-01-03T06:37:41.673Z,208.10
2019-01-03T06:44:13.385Z,189.40
2019-01-03T06:50:45.228Z,181.93
2019-01-03T06:57:33.176Z,182.15
2019-01-03T07:04:21.495Z,175.70
2019-01-03T07:10:53.944Z,166.18
2019-01-03T07:14:20.107Z,173.38
2019-01-03T07:20:52.819Z,188.07
2019-01-03T07:24:17.537Z,191.55
2019-01-03T07:30:52.523Z,201.75
2019-01-03T07:37:37.522Z,207.00
2019-01-03T07:40:26.163Z,198.40
2019-01-03T07:46:58.259Z,207.47
2019-01-03T07:53:46.980Z,220.02
2019-01-03T08:00:37.833Z,204.17
2019-01-03T08:03:21.595Z,211.03
2019-01-03T08:06:04.809Z,218.57
2019-01-03T08:12:37.278Z,201.57
2019-01-03T08:16:02.164Z,208.53
2019-01-03T08:22:40.481Z,204.07
2019-01-03T08:29:25.057Z,225.72
2019-01-03T08:32:49.505Z,223.90
2019-01-03T08:39:24.685Z,226.97
2019-01-03T08:42:12.611Z,229.82
2019-01-03T08:48:47.595Z,223.47
2019-01-03T08:51:28.340Z,222.00
2019-01-03T08:53:59.876Z,223.85
2019-01-03T08:56:43.600Z,212.38
2019-01-03T09:00:08.160Z,189.62
2019-01-03T09:06:43.640Z,179.90
2019-01-03T09:13:24.926Z,193.25
2019-01-03T09:20:13.776Z,205.65
2019-01-03T09:27:02.467Z,236.87
2019-01-03T09:33:34.836Z,248.87
2019-01-03T09:36:59.301Z,271.32
2019-01-03T09:43:47.821Z,240.55
2019-01-03T09:50:18.110Z,233.60
2019-01-03T09:56:48.445Z,214.12
2019-01-03T10:00:12.995Z,219.15
2019-01-03T10:06:44.028Z,234.00
2019-01-03T10:13:15.294Z,237.75
2019-01-03T10:16:40.085Z,233.07
2019-01-03T10:23:10.509Z,255.90
2019-01-03T10:29:41.901Z,255.60
2019-01-03T10:33:06.043Z,257.52
2019-01-03T10:39:36.558Z,270.00
2019-01-03T10:46:07.354Z,279.20
2019-01-03T10:52:38.170Z,277.52
2019-01-03T10:59:10.980Z,262.45
2019-01-03T11:02:35.464Z,279.55
2019-01-03T11:09:07.087Z,283.80
2019-01-03T11:12:31.876Z,267.85
2019-01-03T11:19:03.039Z,294.83
2019-01-03T11:22:27.230Z,289.93
2019-01-03T11:28:57.574Z,277.30
2019-01-03T11:32:22.092Z,294.77
2019-01-03T11:38:53.056Z,277.90
2019-01-03T11:42:17.818Z,264.65
2019-01-03T11:48:48.769Z,248.18
2019-01-03T11:55:20.106Z,238.97
2019-01-03T11:58:44.572Z,211.07
2019-01-03T12:05:15.612Z,209.30
2019-01-03T12:11:46.526Z,163.75
2019-01-03T12:15:10.933Z,240.03
2019-01-03T12:21:42.326Z,264.88
2019-01-03T12:25:06.665Z,256.30
2019-01-03T12:31:37.575Z,236.92
2019-01-03T12:38:08.572Z,140.45
2019-01-03T12:41:33.003Z,149.50
2019-01-03T12:48:04.149Z,139.30
2019-01-03T12:50:34.107Z,226.00
2019-01-03T12:57:05.117Z,270.20
2019-01-03T13:03:35.854Z,256.82
2019-01-03T13:10:08.353Z,258.32
2019-01-03T13:13:32.585Z,265.82
2019-01-03T13:20:03.415Z,231.55
2019-01-03T13:22:37.486Z,214.10
2019-01-03T13:29:08.821Z,187.57
2019-01-03T13:35:40.002Z,160.95
2019-01-03T13:39:04.467Z,180.75
2019-01-03T13:45:35.117Z,240.28
2019-01-03T13:48:47.122Z,218.60
2019-01-03T13:51:17.091Z,241.60
2019-01-03T13:57:47.520Z,231.00
2019-01-03T14:04:17.559Z,253.67
2019-01-03T14:10:47.382Z,162.20
2019-01-03T14:14:13.118Z,224.73
2019-01-03T14:20:43.455Z,148.93
2019-01-03T14:24:07.649Z,137.47
2019-01-03T14:30:37.597Z,130.80
2019-01-03T14:37:08.772Z,143.43
2019-01-03T14:40:33.310Z,129.23
2019-01-03T14:47:04.514Z,133.10
2019-01-03T14:53:36.183Z,135.55
2019-01-03T15:00:11.488Z,132.10
2019-01-03T15:06:42.351Z,132.85
2019-01-03T15:13:12.984Z,131.00
2019-01-03T15:19:43.722Z,128.70
2019-01-03T15:23:08.404Z,131.90
2019-01-03T15:29:39.969Z,135.12
2019-01-03T15:36:11.138Z,144.90
2019-01-03T15:39:35.576Z,138.40
2019-01-03T15:49:10.935Z,133.67
2019-01-03T15:55:41.968Z,136.15
2019-01-03T16:02:13.616Z,130.40
2019-01-03T16:14:55.290Z,128.15
2019-01-03T16:21:26.055Z,132.65
2019-01-03T16:24:50.886Z,132.40
2019-01-03T16:31:22.332Z,133.10
2019-01-03T16:34:46.956Z,157.50
2019-01-03T16:41:17.925Z,134.22
2019-01-03T16:44:42.597Z,130.00
2019-01-03T16:51:13.071Z,135.90
2019-01-03T16:54:37.507Z,133.78
2019-01-03T16:57:09.024Z,135.00
2019-01-03T17:03:40.336Z,130.07
2019-01-03T17:10:13.089Z,136.57
2019-01-03T17:13:37.356Z,137.85
2019-01-03T17:20:10.741Z,134.40
2019-01-03T17:26:41.770Z,157.25
2019-01-03T17:30:06.353Z,138.10
2019-01-03T17:36:38.645Z,142.32
2019-01-03T17:43:09.994Z,134.90
2019-01-03T17:49:40.732Z,134.32
2019-01-03T17:56:11.431Z,138.15
2019-01-03T17:58:41.445Z,136.28
2019-01-03T18:05:12.435Z,136.67
2019-01-03T18:11:43.580Z,220.42
2019-01-03T18:15:08.654Z,153.40
2019-01-03T18:21:39.456Z,138.47
2019-01-03T18:24:45.821Z,140.20
2019-01-03T18:31:16.923Z,181.22
2019-01-03T18:37:48.222Z,161.60
2019-01-03T18:51:08.306Z,151.80
2019-01-03T18:54:33.156Z,142.75
2019-01-03T19:01:03.512Z,132.65
2019-01-03T19:07:34.248Z,133.15
2019-01-03T19:14:05.324Z,134.60
2019-01-03T19:20:36.372Z,135.43
2019-01-03T19:27:07.675Z,132.78
2019-01-03T19:33:38.406Z,132.52
2019-01-03T19:40:11.564Z,130.27
2019-01-03T19:46:42.669Z,135.40
2019-01-03T19:49:49.083Z,136.55
2019-01-03T19:56:20.018Z,132.25
2019-01-03T20:02:50.938Z,130.03
2019-01-03T20:06:15.657Z,135.80
2019-01-03T20:12:46.062Z,129.20
2019-01-03T20:16:10.136Z,130.65
2019-01-03T20:22:40.732Z,257.15
2019-01-03T20:29:11.790Z,152.50
2019-01-03T20:35:43.006Z,178.80
2019-01-03T20:42:13.306Z,138.18
2019-01-03T20:55:12.631Z,126.05
2019-01-03T21:01:43.546Z,178.65
2019-01-03T21:04:13.513Z,195.10
2019-01-03T21:10:44.085Z,170.97
2019-01-03T21:17:14.992Z,178.05
2019-01-03T21:20:40.158Z,165.57
2019-01-03T21:27:11.020Z,161.00
2019-01-03T21:30:35.485Z,156.50
2019-01-03T21:37:06.884Z,166.03
2019-01-03T21:40:31.068Z,158.40
2019-01-03T21:47:01.664Z,159.67
2019-01-03T21:50:26.495Z,160.43
2019-01-03T21:56:57.730Z,165.13
2019-01-03T22:00:22.239Z,169.55
2019-01-03T22:06:53.516Z,158.50
2019-01-03T22:13:24.989Z,204.15
2019-01-03T22:16:49.787Z,183.32
2019-01-03T22:23:20.736Z,181.12
2019-01-03T22:26:45.228Z,148.87
2019-01-03T22:33:16.558Z,156.85
2019-01-03T22:39:47.064Z,157.32
2019-01-03T22:46:18.262Z,163.03
2019-01-03T22:52:49.277Z,151.87
2019-01-03T22:59:20.343Z,185.70
2019-01-03T23:05:51.988Z,152.32
2019-01-03T23:08:25.066Z,166.15
2019-01-03T23:14:55.605Z,165.28
2019-01-03T23:21:26.306Z,160.78
2019-01-03T23:27:57.118Z,158.00
2019-01-03T23:34:28.219Z,170.05
2019-01-03T23:40:59.355Z,214.93
2019-01-03T23:47:30.223Z,193.62
2019-01-03T23:54:00.777Z,167.53
2019-01-03T23:57:25.512Z,158.70
